Time;durP1;ratioP1;P1;durP2;ratioP2;P2;SDS_P1;SDS_P2;PMS_P1;PMS_P2;Temp;Humidity;BMP_temperature;BMP_pressure;BME280_temperature;BME280_humidity;BME280_pressure;Samples;Min_cycle;Max_cycle;Signal;HPM_P1;HPM_P2
2022/12/27 00:02:19;;;;;;;14.37;11.23;;;;;;;0.43;100.00;99866.80;1770904;80;21086;-78
2022/12/27 00:04:46;;;;;;;13.90;10.20;;;;;;;0.44;100.00;99864.45;1752463;80;21347;-77
2022/12/27 00:07:13;;;;;;;14.77;10.50;;;;;;;0.46;100.00;99872.22;1779594;80;21106;-83
2022/12/27 00:09:40;;;;;;;13.40;11.10;;;;;;;0.46;100.00;99875.69;1779566;80;21090;-79
2022/12/27 00:12:10;;;;;;;13.17;9.53;;;;;;;0.46;100.00;99872.22;1767696;80;21039;-94
2022/12/27 00:14:36;;;;;;;14.43;10.87;;;;;;;0.48;100.00;99875.52;1793904;79;21097;-81
2022/12/27 00:17:04;;;;;;;12.23;10.20;;;;;;;0.47;100.00;99872.05;1786487;78;21059;-84
2022/12/27 00:19:31;;;;;;;14.70;11.20;;;;;;;0.51;100.00;99859.27;1817875;78;21250;-92
2022/12/27 00:21:59;;;;;;;10.60;8.53;;;;;;;0.54;100.00;99855.75;1847484;77;20943;-80
2022/12/27 00:24:25;;;;;;;14.00;10.30;;;;;;;0.54;100.00;99858.41;1827743;77;20934;-76
2022/12/27 00:26:53;;;;;;;13.17;10.60;;;;;;;0.55;100.00;99842.85;1818175;77;22200;-80
2022/12/27 00:29:22;;;;;;;14.53;11.47;;;;;;;0.56;100.00;99837.06;1801804;77;20986;-85
2022/12/27 00:31:49;;;;;;;14.23;11.77;;;;;;;0.55;100.00;99835.41;1812342;77;21257;-78
2022/12/27 00:34:15;;;;;;;13.73;10.20;;;;;;;0.57;100.00;99839.53;1817415;78;20932;-81
2022/12/27 00:36:42;;;;;;;14.37;9.30;;;;;;;0.58;100.00;99841.65;1818949;77;20990;-86
2022/12/27 00:39:10;;;;;;;12.93;10.33;;;;;;;0.56;100.00;99831.77;1789178;77;21264;-86
2022/12/27 00:41:37;;;;;;;12.90;9.58;;;;;;;0.58;100.00;99829.74;1809126;77;21058;-87
2022/12/27 00:44:03;;;;;;;12.13;9.67;;;;;;;0.57;100.00;99824.16;1820078;78;21125;-86
2022/12/27 00:46:30;;;;;;;13.58;9.95;;;;;;;0.58;100.00;99814.69;1785195;78;21034;-82
2022/12/27 00:48:58;;;;;;;12.40;8.93;;;;;;;0.58;100.00;99803.28;1820456;77;20872;-81
2022/12/27 00:51:26;;;;;;;11.67;9.97;;;;;;;0.58;100.00;99793.52;1839264;77;21038;-85
2022/12/27 00:53:54;;;;;;;13.05;7.95;;;;;;;0.62;100.00;99794.83;1856561;77;20860;-81
2022/12/27 00:56:27;;;;;;;10.53;8.93;;;;;;;0.61;100.00;99796.32;1829805;77;21212;-85
2022/12/27 00:59:01;;;;;;;12.85;9.00;;;;;;;0.62;100.00;99795.32;1841554;77;21488;-81
2022/12/27 01:01:30;;;;;;;9.33;7.33;;;;;;;0.62;100.00;99788.20;1839678;77;20954;-81
2022/12/27 01:03:57;;;;;;;10.73;8.00;;;;;;;0.63;100.00;99787.67;1855692;77;20997;-79
2022/12/27 01:06:28;;;;;;;10.98;9.80;;;;;;;0.66;100.00;99790.80;1820032;77;20942;-81
2022/12/27 01:08:55;;;;;;;9.68;7.40;;;;;;;0.67;100.00;99781.04;1815139;77;21406;-79
2022/12/27 01:11:25;;;;;;;10.25;8.50;;;;;;;0.68;100.00;99783.48;1830918;77;21471;-86
2022/12/27 01:13:59;;;;;;;10.90;6.80;;;;;;;0.71;100.00;99780.48;1825761;77;20970;-80
2022/12/27 01:16:26;;;;;;;9.48;7.45;;;;;;;0.70;100.00;99778.84;1825749;77;21082;-82
2022/12/27 01:18:53;;;;;;;12.68;7.87;;;;;;;0.68;100.00;99774.22;1846540;77;20977;-83
2022/12/27 01:21:23;;;;;;;10.48;8.70;;;;;;;0.70;100.00;99766.11;1822589;77;21129;-82
2022/12/27 01:23:50;;;;;;;9.57;7.53;;;;;;;0.68;100.00;99767.60;1806705;77;21011;-85
2022/12/27 01:26:19;;;;;;;10.17;8.00;;;;;;;0.68;100.00;99769.42;1827330;77;21496;-87
2022/12/27 01:28:46;;;;;;;10.50;7.75;;;;;;;0.72;100.00;99766.22;1825683;78;21065;-86
2022/12/27 01:31:19;;;;;;;8.33;6.47;;;;;;;0.75;100.00;99772.98;1838949;77;21580;-88
2022/12/27 01:33:49;;;;;;;12.30;9.35;;;;;;;0.75;100.00;99769.84;1806157;78;21021;-90
2022/12/27 01:36:22;;;;;;;8.65;7.70;;;;;;;0.79;100.00;99762.34;1771696;78;20963;-89
2022/12/27 01:38:52;;;;;;;8.57;7.77;;;;;;;0.81;100.00;99763.00;1774268;78;20887;-87
2022/12/27 01:44:38;;;;;;;11.30;7.87;;;;;;;0.84;100.00;99750.70;1854850;77;20962;-87
2022/12/27 01:47:22;;;;;;;12.63;8.35;;;;;;;0.86;100.00;99748.17;1781228;78;21150;-90
2022/12/27 01:50:13;;;;;;;9.85;7.95;;;;;;;0.90;100.00;99731.94;1826215;78;20911;-89
2022/12/27 01:53:03;;;;;;;10.08;8.10;;;;;;;0.88;100.00;99723.66;1825989;77;20909;-88
2022/12/27 01:55:51;;;;;;;7.17;5.83;;;;;;;0.91;100.00;99718.52;1834460;77;21507;-89
2022/12/27 01:58:34;;;;;;;8.43;7.27;;;;;;;0.93;100.00;99713.02;1848579;77;20984;-90
2022/12/27 02:01:05;;;;;;;10.45;8.18;;;;;;;0.93;100.00;99711.19;1824423;77;21039;-90
2022/12/27 02:03:45;;;;;;;11.00;7.97;;;;;;;0.93;100.00;99709.05;1835578;77;21561;-89
2022/12/27 02:06:15;;;;;;;10.03;8.43;;;;;;;0.94;100.00;99703.57;1831292;77;21500;-87
2022/12/27 02:09:06;;;;;;;9.93;7.37;;;;;;;0.97;100.00;99695.73;1848156;77;20973;-91
2022/12/27 02:11:52;;;;;;;8.05;6.92;;;;;;;0.96;100.00;99691.48;1851603;77;21006;-92
2022/12/27 02:14:28;;;;;;;8.83;7.92;;;;;;;0.98;100.00;99684.15;1821073;77;21542;-88
2022/12/27 02:17:16;;;;;;;11.83;7.92;;;;;;;1.00;100.00;99683.47;1793372;80;20978;-91
2022/12/27 02:20:18;;;;;;;8.70;7.40;;;;;;;1.00;100.00;99684.80;1766685;80;20998;-92
2022/12/27 02:26:34;;;;;;;9.05;6.25;;;;;;;0.99;100.00;99668.08;1842928;77;21480;-88
2022/12/27 02:29:42;;;;;;;18.17;10.57;;;;;;;0.99;100.00;99669.91;1848250;77;21023;-84
2022/12/27 02:32:50;;;;;;;8.63;6.85;;;;;;;1.01;100.00;99661.28;1852865;77;21112;-86
2022/12/27 02:35:25;;;;;;;10.35;7.83;;;;;;;1.07;100.00;99648.59;1832464;77;20985;-82
2022/12/27 02:37:59;;;;;;;8.75;7.60;;;;;;;1.09;100.00;99651.37;1802929;77;20970;-84
2022/12/27 02:55:13;;;;;;;10.93;7.57;;;;;;;1.10;100.00;99622.56;1839530;77;21085;-82
2022/12/27 02:58:09;;;;;;;9.05;7.97;;;;;;;1.09;100.00;99620.92;1825962;78;20989;-83
2022/12/27 03:03:43;;;;;;;8.35;7.05;;;;;;;1.11;100.00;99611.44;1816709;78;21179;-80
2022/12/27 03:06:54;;;;;;;11.18;8.88;;;;;;;1.10;100.00;99598.73;1822861;77;21007;-80
2022/12/27 03:15:55;;;;;;;11.30;7.90;;;;;;;1.10;100.00;99583.34;1826493;77;20937;-79
2022/12/27 03:18:38;;;;;;;12.82;9.20;;;;;;;1.13;100.00;99570.53;1848326;77;21008;-79
2022/12/27 03:26:41;;;;;;;12.15;8.28;;;;;;;1.10;100.00;99580.20;1825608;77;21260;-79
2022/12/27 03:34:46;;;;;;;12.03;9.58;;;;;;;1.20;100.00;99587.28;1834207;77;21471;-81
2022/12/27 03:40:33;;;;;;;12.05;10.15;;;;;;;1.31;100.00;99569.55;1825986;77;21148;-81
2022/12/27 03:43:10;;;;;;;12.65;9.23;;;;;;;1.28;100.00;99559.34;1826162;77;26690;-80
2022/12/27 03:49:04;;;;;;;11.28;9.28;;;;;;;1.35;100.00;99555.39;1836005;77;20940;-78
2022/12/27 03:51:50;;;;;;;10.32;8.23;;;;;;;1.39;100.00;99558.50;1857286;77;20983;-84
2022/12/27 03:54:25;;;;;;;9.78;8.40;;;;;;;1.47;100.00;99559.66;1843141;77;21106;-85
2022/12/27 03:56:50;;;;;;;12.90;9.28;;;;;;;1.59;100.00;99561.56;1825914;77;20990;-84
2022/12/27 03:59:16;;;;;;;11.12;9.18;;;;;;;1.66;100.00;99573.03;1824472;78;20924;-85
2022/12/27 04:01:43;;;;;;;8.80;7.78;;;;;;;1.70;100.00;99566.33;1792909;79;21022;-80
2022/12/27 04:04:09;;;;;;;12.68;10.58;;;;;;;1.74;100.00;99558.28;1802214;77;20999;-81
2022/12/27 04:06:37;;;;;;;13.22;9.98;;;;;;;1.70;100.00;99549.09;1826244;77;22147;-81
2022/12/27 04:36:36;;;;;;;11.75;9.90;;;;;;;1.90;100.00;99503.30;1841191;77;21540;-80
2022/12/27 04:39:03;;;;;;;12.00;10.10;;;;;;;1.92;100.00;99514.53;1844689;77;20888;-81
2022/12/27 04:55:24;;;;;;;11.28;9.33;;;;;;;2.01;100.00;99478.86;1835172;77;21070;-78
2022/12/27 04:57:51;;;;;;;12.07;9.90;;;;;;;2.01;100.00;99477.03;1787180;78;21035;-78
2022/12/27 05:03:13;;;;;;;11.08;9.23;;;;;;;2.13;100.00;99483.88;1818813;78;21432;-78
2022/12/27 05:05:40;;;;;;;14.35;11.45;;;;;;;2.16;100.00;99484.79;1812020;77;20940;-78
2022/12/27 05:16:36;;;;;;;16.17;12.80;;;;;;;2.16;100.00;99465.72;1719658;81;21325;-79
2022/12/27 05:19:04;;;;;;;13.30;10.15;;;;;;;2.25;100.00;99469.02;1728482;81;21568;-79
2022/12/27 05:21:38;;;;;;;13.32;9.78;;;;;;;2.30;100.00;99465.26;1808412;79;20997;-78
2022/12/27 05:26:55;;;;;;;16.20;12.95;;;;;;;2.32;100.00;99474.32;1795916;79;21673;-78
2022/12/27 05:29:21;;;;;;;13.80;10.82;;;;;;;2.29;100.00;99490.66;1787207;79;20987;-80
2022/12/27 05:31:48;;;;;;;16.67;13.20;;;;;;;2.29;100.00;99473.41;1765991;80;21117;-80
2022/12/27 05:34:14;;;;;;;17.02;13.00;;;;;;;2.30;100.00;99481.17;1766445;79;21115;-78
2022/12/27 05:36:41;;;;;;;16.15;13.25;;;;;;;2.31;100.00;99492.08;1796099;79;21043;-82
2022/12/27 05:39:07;;;;;;;19.70;14.98;;;;;;;2.30;100.00;99483.83;1794310;79;21205;-79
2022/12/27 05:41:34;;;;;;;15.55;12.95;;;;;;;2.32;100.00;99482.28;1764795;80;21035;-77
2022/12/27 05:44:00;;;;;;;19.87;15.18;;;;;;;2.33;100.00;99488.72;1762351;79;21500;-76
2022/12/27 05:46:28;;;;;;;21.27;14.85;;;;;;;2.34;100.00;99477.09;1763217;79;21544;-75
2022/12/27 05:48:55;;;;;;;20.50;15.18;;;;;;;2.37;100.00;99483.82;1762815;81;21599;-78
2022/12/27 05:51:22;;;;;;;20.40;16.17;;;;;;;2.37;100.00;99476.68;1763000;80;21569;-77
2022/12/27 05:53:48;;;;;;;22.87;15.85;;;;;;;2.43;100.00;99468.42;1771797;80;21156;-76
2022/12/27 05:56:17;;;;;;;20.62;15.53;;;;;;;2.44;100.00;99465.58;1793791;79;21344;-79
2022/12/27 05:58:46;;;;;;;20.92;16.00;;;;;;;2.45;100.00;99467.69;1796643;79;20963;-76
2022/12/27 06:01:15;;;;;;;20.68;16.20;;;;;;;2.46;100.00;99471.48;1756803;79;21016;-76
2022/12/27 06:03:42;;;;;;;18.85;14.23;;;;;;;2.47;100.00;99471.80;1754727;80;21038;-76
2022/12/27 06:06:09;;;;;;;20.60;16.62;;;;;;;2.48;100.00;99461.49;1767650;79;21007;-75
2022/12/27 06:08:36;;;;;;;24.15;16.45;;;;;;;2.47;100.00;99457.20;1746038;80;26121;-76
2022/12/27 06:11:09;;;;;;;23.92;17.25;;;;;;;2.49;100.00;99463.64;1711634;82;21015;-78
2022/12/27 06:13:37;;;;;;;17.10;14.38;;;;;;;2.51;100.00;99458.92;1702393;81;20974;-76
2022/12/27 06:16:05;;;;;;;20.57;16.15;;;;;;;2.53;100.00;99460.37;1722409;82;21036;-81
2022/12/27 06:18:34;;;;;;;23.15;16.90;;;;;;;2.57;100.00;99457.61;1729778;82;21011;-77
2022/12/27 06:21:09;;;;;;;19.92;16.52;;;;;;;2.58;100.00;99465.89;1729846;83;21038;-79
2022/12/27 06:23:38;;;;;;;27.98;19.65;;;;;;;2.58;100.00;99465.89;1721097;81;21589;-77
2022/12/27 06:26:09;;;;;;;22.60;17.42;;;;;;;2.61;100.00;99468.63;1729761;82;21516;-79
2022/12/27 06:28:36;;;;;;;27.98;20.82;;;;;;;2.61;100.00;99469.45;1729455;82;21154;-77
2022/12/27 06:31:03;;;;;;;20.43;14.38;;;;;;;2.63;100.00;99465.28;1728470;82;20975;-79
2022/12/27 06:33:30;;;;;;;26.45;18.73;;;;;;;2.64;100.00;99463.72;1730070;83;20998;-78
2022/12/27 06:35:56;;;;;;;27.20;19.60;;;;;;;2.68;100.00;99456.70;1730189;82;21487;-78
2022/12/27 06:38:25;;;;;;;23.15;18.15;;;;;;;2.73;100.00;99459.05;1730121;82;21078;-79
2022/12/27 06:40:51;;;;;;;25.55;17.60;;;;;;;2.76;100.00;99464.45;1721944;82;21266;-79
2022/12/27 06:43:17;;;;;;;33.48;21.68;;;;;;;2.76;100.00;99469.76;1703493;82;21001;-80
2022/12/27 06:45:56;;;;;;;29.80;19.48;;;;;;;2.76;100.00;99465.27;1722208;83;20985;-82
2022/12/27 06:48:23;;;;;;;25.00;17.52;;;;;;;2.78;100.00;99471.17;1708747;83;20993;-80
2022/12/27 06:50:49;;;;;;;31.97;21.50;;;;;;;2.79;100.00;99464.03;1736188;82;20981;-79
2022/12/27 06:53:17;;;;;;;28.70;21.73;;;;;;;2.80;100.00;99466.99;1734923;80;21258;-78
2022/12/27 06:55:43;;;;;;;30.40;21.68;;;;;;;2.82;100.00;99468.95;1717967;83;21465;-77
2022/12/27 06:58:11;;;;;;;26.52;20.27;;;;;;;2.84;100.00;99458.41;1716200;83;21625;-78
2022/12/27 07:00:40;;;;;;;28.40;21.45;;;;;;;2.90;100.00;99468.73;1730505;83;21049;-79
2022/12/27 07:03:08;;;;;;;28.98;21.15;;;;;;;2.93;100.00;99459.83;1731778;83;21027;-83
2022/12/27 07:05:35;;;;;;;31.17;21.40;;;;;;;2.94;100.00;99456.16;1729244;83;21100;-82
2022/12/27 07:08:04;;;;;;;29.85;22.40;;;;;;;2.97;100.00;99462.38;1717280;83;21010;-83
2022/12/27 07:10:31;;;;;;;27.05;21.15;;;;;;;3.00;100.00;99457.17;1712170;83;20951;-78
2022/12/27 07:12:57;;;;;;;25.82;20.12;;;;;;;3.01;100.00;99469.44;1729796;83;20966;-77
2022/12/27 07:15:24;;;;;;;29.37;21.57;;;;;;;3.02;100.00;99464.44;1730561;81;21066;-77
2022/12/27 07:17:50;;;;;;;28.52;20.70;;;;;;;3.02;100.00;99455.93;1728602;83;21227;-77
2022/12/27 07:20:17;;;;;;;29.20;19.87;;;;;;;3.05;100.00;99456.87;1731829;82;21015;-78
2022/12/27 07:22:46;;;;;;;28.25;19.77;;;;;;;3.08;100.00;99453.78;1724810;83;21039;-77
2022/12/27 07:25:12;;;;;;;31.37;21.80;;;;;;;3.13;100.00;99456.33;1738495;82;21074;-78
2022/12/27 07:27:39;;;;;;;31.10;23.18;;;;;;;3.15;100.00;99459.61;1744054;81;21105;-79
2022/12/27 07:30:09;;;;;;;31.90;23.32;;;;;;;3.19;100.00;99454.17;1715572;82;21088;-75
2022/12/27 07:32:35;;;;;;;33.00;25.00;;;;;;;3.19;100.00;99452.84;1711448;83;21035;-77
2022/12/27 07:35:03;;;;;;;31.48;23.07;;;;;;;3.21;100.00;99447.65;1737532;82;20952;-80
2022/12/27 07:37:30;;;;;;;33.98;24.90;;;;;;;3.21;100.00;99447.65;1693811;82;21043;-80
2022/12/27 07:39:56;;;;;;;38.10;24.50;;;;;;;3.28;100.00;99448.43;1732625;82;21598;-77
2022/12/27 07:42:22;;;;;;;39.95;27.40;;;;;;;3.34;100.00;99442.80;1745209;82;21231;-82
2022/12/27 07:44:49;;;;;;;40.00;24.12;;;;;;;3.34;100.00;99442.80;1713726;83;21035;-79
2022/12/27 07:47:15;;;;;;;38.23;26.15;;;;;;;3.42;100.00;99447.88;1735757;82;21066;-78
2022/12/27 07:49:42;;;;;;;36.85;24.98;;;;;;;3.46;100.00;99444.58;1745239;82;20972;-79
2022/12/27 07:52:08;;;;;;;41.20;26.65;;;;;;;3.50;100.00;99442.34;1724708;82;21031;-79
2022/12/27 07:54:35;;;;;;;48.42;30.80;;;;;;;3.51;100.00;99444.77;1716395;83;21136;-78
2022/12/27 07:57:02;;;;;;;46.55;30.27;;;;;;;3.53;100.00;99445.91;1719070;83;20991;-78
2022/12/27 07:59:29;;;;;;;53.30;34.20;;;;;;;3.55;100.00;99443.83;1698289;83;20994;-78
2022/12/27 08:02:05;;;;;;;43.83;28.62;;;;;;;3.61;100.00;99444.84;1707475;82;21042;-78
2022/12/27 14:14:56;;;;;;;47.48;29.57;;;;;;;5.78;100.00;99325.63;1694058;82;28108;-80
2022/12/27 14:18:04;;;;;;;49.45;32.90;;;;;;;5.86;100.00;99323.95;1636978;85;21637;-80
2022/12/27 14:20:43;;;;;;;36.15;24.32;;;;;;;5.93;100.00;99326.86;1635442;85;21149;-83
2022/12/27 14:23:50;;;;;;;43.23;28.85;;;;;;;6.05;100.00;99325.54;1645914;85;21529;-77
2022/12/27 14:26:53;;;;;;;42.85;26.57;;;;;;;6.13;100.00;99331.37;1662264;84;20951;-87
2022/12/27 14:30:18;;;;;;;36.10;25.57;;;;;;;6.19;100.00;99328.28;1698245;84;21009;-88
2022/12/27 14:33:22;;;;;;;35.65;25.35;;;;;;;6.26;100.00;99333.02;1702175;83;20978;-79
2022/12/27 14:36:03;;;;;;;46.55;26.82;;;;;;;6.38;100.00;99331.70;1660541;85;21564;-79
2022/12/27 14:39:27;;;;;;;38.50;25.55;;;;;;;6.46;100.00;99325.48;1701104;84;21014;-75
2022/12/27 14:42:32;;;;;;;30.97;21.82;;;;;;;6.55;100.00;99328.62;1678750;85;21608;-74
2022/12/27 14:45:41;;;;;;;37.85;24.92;;;;;;;6.58;100.00;99336.16;1633298;85;21101;-74
2022/12/27 14:48:48;;;;;;;39.88;25.40;;;;;;;6.64;100.00;99341.91;1693962;84;21136;-72
2022/12/27 14:51:43;;;;;;;37.30;25.43;;;;;;;6.70;100.00;99340.98;1678853;84;21144;-75
2022/12/27 14:55:03;;;;;;;36.45;23.77;;;;;;;6.74;100.00;99348.02;1682208;83;21002;-71
2022/12/27 14:58:11;;;;;;;35.20;23.67;;;;;;;6.76;100.00;99348.61;1649614;85;21122;-80
2022/12/27 15:01:04;;;;;;;28.65;19.30;;;;;;;6.71;100.00;99354.65;1666819;84;21109;-82
2022/12/27 15:04:11;;;;;;;25.60;18.12;;;;;;;6.68;100.00;99355.62;1628250;86;21523;-72
2022/12/27 15:07:13;;;;;;;23.73;14.93;;;;;;;6.62;100.00;99356.02;1665471;85;21635;-80
2022/12/27 15:10:01;;;;;;;27.17;15.75;;;;;;;6.64;100.00;99363.30;1666136;84;21615;-76
2022/12/27 15:13:03;;;;;;;23.15;15.48;;;;;;;6.63;100.00;99356.83;1671522;85;21064;-77
2022/12/27 15:15:44;;;;;;;19.40;14.07;;;;;;;6.62;100.00;99353.34;1652636;85;21052;-75
2022/12/27 15:18:44;;;;;;;21.87;15.43;;;;;;;6.66;100.00;99356.39;1673462;84;21089;-78
2022/12/27 15:21:31;;;;;;;18.30;14.05;;;;;;;6.66;100.00;99362.55;1668920;85;21116;-84
2022/12/27 15:24:24;;;;;;;17.32;13.38;;;;;;;6.65;100.00;99366.78;1665832;85;21076;-75
2022/12/27 15:27:30;;;;;;;18.62;12.82;;;;;;;6.62;100.00;99369.93;1673262;85;21060;-78
2022/12/27 15:30:17;;;;;;;15.68;12.45;;;;;;;6.61;100.00;99371.78;1673533;85;21091;-75
2022/12/27 15:33:20;;;;;;;11.90;9.13;;;;;;;6.60;100.00;99381.35;1666771;85;21069;-75
2022/12/27 15:36:15;;;;;;;10.60;8.55;;;;;;;6.56;100.00;99392.52;1673006;84;21242;-76
2022/12/27 15:38:48;;;;;;;12.03;8.50;;;;;;;6.57;100.00;99386.63;1647436;87;21114;-75
2022/12/27 15:41:50;;;;;;;10.50;7.73;;;;;;;6.55;100.00;99382.05;1645439;87;21621;-75
2022/12/27 15:44:48;;;;;;;10.82;7.92;;;;;;;6.56;100.00;99385.02;1631501;87;21157;-74
2022/12/27 15:47:45;;;;;;;9.83;7.47;;;;;;;6.55;100.00;99376.70;1647700;87;21014;-76
2022/12/27 15:51:03;;;;;;;9.75;8.08;;;;;;;6.53;100.00;99408.17;1647688;87;21306;-75
2022/12/27 15:53:56;;;;;;;7.03;6.25;;;;;;;6.50;100.00;99403.30;1638018;87;21542;-79
2022/12/27 15:56:49;;;;;;;7.87;6.58;;;;;;;6.44;100.00;99417.05;1620408;88;21051;-75
2022/12/27 16:00:06;;;;;;;7.87;5.78;;;;;;;6.41;100.00;99425.53;1661808;85;21623;-74
2022/12/27 16:02:51;;;;;;;5.30;4.75;;;;;;;6.36;100.00;99427.25;1663308;84;21127;-75
2022/12/27 16:05:24;;;;;;;4.80;4.17;;;;;;;6.28;100.00;99457.78;1630424;86;21157;-78
2022/12/27 16:08:04;;;;;;;3.87;3.58;;;;;;;6.19;100.00;99463.67;1647430;87;21525;-78
2022/12/27 16:10:46;;;;;;;4.85;4.03;;;;;;;6.09;100.00;99439.64;1635084;87;21070;-73
2022/12/27 16:13:18;;;;;;;5.15;4.67;;;;;;;6.02;100.00;99441.61;1642291;86;21086;-78
2022/12/27 16:15:50;;;;;;;3.35;2.70;;;;;;;5.98;100.00;99455.63;1605924;87;21031;-75
2022/12/27 16:18:24;;;;;;;2.67;2.47;;;;;;;5.91;100.00;99471.72;1618338;87;21017;-73
2022/12/27 16:21:17;;;;;;;3.50;3.22;;;;;;;5.82;100.00;99502.39;1631429;87;21132;-73
2022/12/27 16:23:51;;;;;;;1.95;1.85;;;;;;;5.71;100.00;99496.46;1643777;87;21336;-71
2022/12/27 16:26:29;;;;;;;2.22;2.10;;;;;;;5.54;100.00;99506.11;1647435;87;20966;-72
2022/12/27 16:28:59;;;;;;;2.00;1.80;;;;;;;5.41;100.00;99535.08;1638792;87;21101;-73
2022/12/27 16:31:28;;;;;;;1.70;1.60;;;;;;;5.24;100.00;99524.66;1640560;87;21237;-72
2022/12/27 16:33:59;;;;;;;2.95;1.77;;;;;;;5.11;100.00;99500.28;1646934;87;20997;-73
2022/12/27 16:36:34;;;;;;;2.30;1.70;;;;;;;4.98;100.00;99547.55;1619544;88;21039;-73
2022/12/27 16:39:28;;;;;;;1.47;1.37;;;;;;;4.87;100.00;99533.08;1609901;87;21046;-73
2022/12/27 16:42:03;;;;;;;2.58;2.37;;;;;;;4.74;100.00;99526.52;1627242;87;21001;-73
2022/12/27 16:44:53;;;;;;;1.67;1.57;;;;;;;4.58;100.00;99537.17;1615215;87;21148;-76
2022/12/27 16:47:40;;;;;;;1.42;1.32;;;;;;;4.51;100.00;99549.70;1639208;87;21045;-72
2022/12/27 16:50:41;;;;;;;1.80;1.47;;;;;;;4.41;100.00;99504.11;1636541;87;21069;-75
2022/12/27 16:53:43;;;;;;;2.33;2.12;;;;;;;4.29;100.00;99546.55;1640345;87;21549;-78
2022/12/27 16:56:26;;;;;;;1.60;1.37;;;;;;;4.17;100.00;99520.28;1630583;87;21124;-83
2022/12/27 16:58:53;;;;;;;2.58;1.30;;;;;;;4.10;100.00;99533.34;1629854;87;21913;-69
2022/12/27 17:01:45;;;;;;;1.77;1.60;;;;;;;4.03;100.00;99544.54;1623966;87;21117;-69
2022/12/27 17:04:34;;;;;;;1.25;1.15;;;;;;;3.95;100.00;99529.61;1624910;87;21073;-68
2022/12/27 17:07:00;;;;;;;1.90;1.60;;;;;;;3.89;100.00;99556.53;1620769;87;21017;-68
2022/12/27 17:09:39;;;;;;;1.67;1.40;;;;;;;3.85;100.00;99575.28;1593805;90;21109;-69
2022/12/27 17:12:11;;;;;;;1.47;1.37;;;;;;;3.82;100.00;99561.59;1633040;87;21176;-69
2022/12/27 17:14:37;;;;;;;1.65;1.55;;;;;;;3.73;100.00;99598.75;1620822;87;21077;-70
2022/12/27 17:17:19;;;;;;;2.20;1.82;;;;;;;3.68;100.00;99561.32;1621577;87;21025;-69
2022/12/27 17:20:00;;;;;;;1.75;1.50;;;;;;;3.65;100.00;99588.31;1625314;87;20982;-70
2022/12/27 17:22:26;;;;;;;1.40;1.30;;;;;;;3.62;100.00;99607.34;1635825;85;21208;-69
2022/12/27 17:24:59;;;;;;;1.50;1.40;;;;;;;3.60;100.00;99590.80;1630215;87;21279;-70
2022/12/27 17:27:57;;;;;;;1.75;1.65;;;;;;;3.58;100.00;99591.00;1642241;87;21006;-69
2022/12/27 17:30:27;;;;;;;1.42;1.32;;;;;;;3.56;100.00;99600.19;1628436;86;20994;-71
2022/12/27 17:33:19;;;;;;;1.95;1.72;;;;;;;3.51;100.00;99614.92;1647662;86;21569;-73
2022/12/27 17:36:09;;;;;;;2.47;1.30;;;;;;;3.45;100.00;99642.33;1636684;87;21113;-70
2022/12/27 17:39:20;;;;;;;1.42;1.32;;;;;;;3.43;100.00;99624.95;1635249;87;21847;-74
2022/12/27 17:45:21;;;;;;;1.77;1.42;;;;;;;3.38;100.00;99632.73;1630234;86;20985;-72
2022/12/27 17:48:24;;;;;;;2.22;1.40;;;;;;;3.35;100.00;99642.45;1638055;87;21062;-73
2022/12/27 17:50:53;;;;;;;3.10;1.77;;;;;;;3.32;100.00;99614.94;1642419;85;21053;-72
2022/12/27 21:17:57;;;;;;;5.53;2.90;;;;;;;2.56;100.00;99871.93;1753155;79;39176;-73
2022/12/27 21:20:24;;;;;;;4.42;3.25;;;;;;;2.59;100.00;99886.95;1732440;82;20988;-72
2022/12/27 21:22:51;;;;;;;7.55;3.00;;;;;;;2.66;100.00;99878.23;1723133;82;21125;-78
2022/12/27 21:25:19;;;;;;;9.03;4.55;;;;;;;2.72;100.00;99854.89;1721188;82;21052;-77
2022/12/27 21:27:47;;;;;;;4.22;2.60;;;;;;;2.77;100.00;99881.68;1734546;82;20969;-80
2022/12/27 21:30:13;;;;;;;7.35;4.40;;;;;;;2.81;100.00;99870.47;1728450;82;21016;-76
2022/12/27 21:32:40;;;;;;;6.50;3.08;;;;;;;2.87;100.00;99879.50;1708077;82;21020;-72
2022/12/27 21:35:09;;;;;;;8.58;4.80;;;;;;;2.90;100.00;99881.25;1712630;82;21222;-71
2022/12/27 21:37:37;;;;;;;7.60;3.40;;;;;;;2.93;100.00;99886.16;1712482;82;21089;-74
2022/12/27 21:40:06;;;;;;;7.17;2.70;;;;;;;2.97;100.00;99885.28;1714343;82;21554;-69
2022/12/27 21:42:33;;;;;;;8.00;4.50;;;;;;;2.99;99.92;99872.60;1676874;84;21011;-76
2022/12/27 21:45:00;;;;;;;5.80;2.60;;;;;;;3.00;99.49;99879.06;1703360;82;21610;-76
2022/12/27 21:47:28;;;;;;;5.12;3.27;;;;;;;3.00;98.85;99891.02;1724532;82;21196;-73
2022/12/27 21:49:54;;;;;;;9.80;2.67;;;;;;;2.99;98.83;99869.44;1707123;82;21585;-74
2022/12/27 21:52:21;;;;;;;5.90;4.12;;;;;;;2.99;98.67;99870.77;1700924;82;21031;-82
2022/12/27 21:54:48;;;;;;;7.97;3.40;;;;;;;3.02;98.59;99888.17;1701124;84;20982;-80
2022/12/27 21:57:14;;;;;;;5.92;2.90;;;;;;;3.03;98.47;99892.45;1719202;82;21099;-77
2022/12/27 21:59:41;;;;;;;5.40;2.80;;;;;;;3.05;98.29;99894.41;1733797;82;21183;-78
2022/12/27 22:02:08;;;;;;;3.85;2.25;;;;;;;3.04;98.16;99884.28;1701561;82;21125;-72
2022/12/27 22:04:35;;;;;;;13.78;3.17;;;;;;;3.04;98.07;99880.30;1734110;82;20988;-79
2022/12/27 22:07:02;;;;;;;13.40;3.50;;;;;;;3.05;97.88;99889.09;1703827;82;21543;-75
2022/12/27 22:09:29;;;;;;;7.00;3.25;;;;;;;3.04;97.89;99904.22;1709297;83;21683;-74
2022/12/27 22:11:55;;;;;;;10.38;4.87;;;;;;;3.07;97.94;99889.70;1715568;83;22318;-78
2022/12/27 22:14:21;;;;;;;5.55;3.05;;;;;;;3.08;97.80;99881.55;1700577;83;21010;-77
2022/12/27 22:16:48;;;;;;;10.08;3.10;;;;;;;3.11;97.54;99874.21;1701907;83;21049;-76
2022/12/27 22:19:15;;;;;;;6.12;2.47;;;;;;;3.12;97.17;99883.83;1694476;82;20984;-73
2022/12/27 22:21:42;;;;;;;7.75;3.22;;;;;;;3.08;96.75;99883.38;1730489;82;21503;-75
2022/12/27 22:24:15;;;;;;;5.08;3.15;;;;;;;3.07;96.51;99882.56;1732992;82;21037;-74
2022/12/27 22:26:41;;;;;;;9.80;3.35;;;;;;;3.07;96.41;99873.26;1687297;84;20970;-73
2022/12/27 22:29:08;;;;;;;6.87;3.08;;;;;;;3.08;95.83;99878.06;1695116;82;20942;-73
2022/12/27 22:31:36;;;;;;;8.45;3.20;;;;;;;3.08;95.04;99886.86;1715281;82;21137;-75
2022/12/27 22:34:03;;;;;;;5.17;3.10;;;;;;;3.08;95.04;99886.86;1713618;82;21074;-74
2022/12/27 22:36:30;;;;;;;7.60;3.25;;;;;;;3.09;94.23;99890.34;1704078;82;21446;-75
2022/12/27 22:38:58;;;;;;;6.87;3.92;;;;;;;3.10;94.14;99888.00;1702490;82;20958;-71
2022/12/27 22:41:28;;;;;;;6.28;3.52;;;;;;;3.12;93.90;99885.16;1698181;82;21034;-73
2022/12/27 22:44:00;;;;;;;5.40;3.05;;;;;;;3.12;93.90;99885.16;1712358;83;21633;-70
2022/12/27 22:46:28;;;;;;;4.03;2.92;;;;;;;3.13;93.73;99885.45;1717759;83;21052;-76
2022/12/27 22:48:58;;;;;;;5.37;2.55;;;;;;;3.16;93.58;99894.37;1689708;83;21120;-73
2022/12/27 22:51:31;;;;;;;8.58;3.10;;;;;;;3.16;93.32;99893.87;1665996;85;20986;-76
2022/12/27 22:53:59;;;;;;;3.42;2.47;;;;;;;3.14;93.00;99911.83;1696026;83;21094;-72
2022/12/27 22:56:35;;;;;;;4.55;2.58;;;;;;;3.11;92.43;99893.64;1700459;83;21066;-71
2022/12/27 22:59:11;;;;;;;7.92;3.12;;;;;;;3.11;92.25;99910.08;1674654;83;22013;-72
2022/12/27 23:01:38;;;;;;;5.45;3.33;;;;;;;3.12;92.33;99911.73;1694168;83;21301;-71
2022/12/27 23:04:06;;;;;;;7.45;2.50;;;;;;;3.11;92.19;99908.75;1707792;83;21033;-72
2022/12/27 23:06:33;;;;;;;10.38;3.52;;;;;;;3.10;92.25;99915.91;1698566;83;21026;-71
2022/12/27 23:09:03;;;;;;;5.58;3.42;;;;;;;3.11;92.25;99919.38;1689413;83;21026;-71
2022/12/27 23:11:32;;;;;;;3.95;2.87;;;;;;;3.11;92.07;99924.70;1698102;83;21137;-71
2022/12/27 23:14:06;;;;;;;8.63;3.10;;;;;;;3.10;92.11;99915.91;1722877;83;21084;-68
2022/12/27 23:16:39;;;;;;;5.47;2.50;;;;;;;3.12;92.09;99913.84;1693509;83;21645;-71
2022/12/27 23:19:06;;;;;;;7.92;2.92;;;;;;;3.12;92.09;99913.84;1705024;83;21015;-68
2022/12/27 23:21:34;;;;;;;5.00;2.85;;;;;;;3.12;92.05;99920.49;1718599;83;21070;-81
2022/12/27 23:24:02;;;;;;;7.08;2.83;;;;;;;3.10;92.16;99923.05;1729565;83;21078;-89
2022/12/27 23:26:29;;;;;;;6.65;3.35;;;;;;;3.10;92.19;99929.69;1706270;83;21097;-74
2022/12/27 23:28:55;;;;;;;7.87;3.58;;;;;;;3.08;92.22;99909.44;1690497;83;21558;-76